Time;durP1;ratioP1;P1;durP2;ratioP2;P2;SDS_P1;SDS_P2;PMS_P1;PMS_P2;Temp;Humidity;BMP_temperature;BMP_pressure;BME280_temperature;BME280_humidity;BME280_pressure;Samples;Min_cycle;Max_cycle;Signal;HPM_P1;HPM_P2
2022/02/22 00:00:02;;;;;;;4.07;1.40;;;;;;;3.11;85.85;95866.59;4834987;29;20825;-79
2022/02/22 00:02:29;;;;;;;7.00;1.30;;;;;;;3.06;86.08;95870.13;4836515;29;20054;-78
2022/02/22 00:04:55;;;;;;;3.90;1.25;;;;;;;3.01;86.00;95872.84;4836211;29;20096;-79
2022/02/22 00:07:23;;;;;;;3.15;1.00;;;;;;;3.00;85.95;95876.63;4836335;29;20066;-79
2022/02/22 00:09:50;;;;;;;4.43;1.20;;;;;;;2.98;86.18;95872.63;4837383;29;20058;-79
2022/02/22 00:12:16;;;;;;;5.57;1.40;;;;;;;2.96;86.34;95869.41;4841227;29;20085;-79
2022/02/22 00:14:43;;;;;;;3.40;1.10;;;;;;;2.94;86.17;95872.38;4858996;29;20061;-79
2022/02/22 00:17:10;;;;;;;6.45;1.27;;;;;;;2.97;86.25;95873.69;4857831;29;20413;-81
2022/02/22 00:19:37;;;;;;;5.03;1.42;;;;;;;2.97;86.18;95877.19;4859229;29;20057;-81
2022/02/22 00:22:04;;;;;;;4.32;1.30;;;;;;;2.96;85.96;95864.03;4857909;29;20079;-78
2022/02/22 00:24:31;;;;;;;4.30;1.20;;;;;;;2.97;85.82;95871.00;4859059;29;20049;-78
2022/02/22 00:26:58;;;;;;;5.38;1.30;;;;;;;2.96;85.81;95867.50;4858579;29;20061;-78
2022/02/22 00:29:25;;;;;;;7.25;1.60;;;;;;;2.92;85.94;95868.34;4858459;29;20054;-79
2022/02/22 00:31:51;;;;;;;3.42;1.02;;;;;;;2.88;85.93;95868.94;4858512;29;20050;-78
2022/02/22 00:34:18;;;;;;;4.50;1.23;;;;;;;2.94;85.49;95871.56;4858132;29;20068;-78
2022/02/22 00:36:44;;;;;;;4.00;1.20;;;;;;;2.88;85.53;95877.00;4858972;29;20089;-78
2022/02/22 00:39:13;;;;;;;3.25;1.10;;;;;;;2.88;85.61;95879.69;4858082;29;20061;-78
2022/02/22 00:41:41;;;;;;;3.17;1.17;;;;;;;2.87;85.75;95882.63;4859406;29;20054;-78
2022/02/22 00:44:07;;;;;;;7.47;1.55;;;;;;;2.86;85.44;95891.78;4856165;29;20049;-79
2022/02/22 00:46:34;;;;;;;4.28;1.40;;;;;;;2.85;85.30;95882.13;4859450;29;20057;-79
2022/02/22 00:49:01;;;;;;;8.95;1.38;;;;;;;2.92;85.19;95890.66;4858560;29;20054;-78
2022/02/22 00:51:27;;;;;;;3.08;0.90;;;;;;;2.95;84.99;95894.69;4858252;29;20054;-79
2022/02/22 00:53:54;;;;;;;3.03;1.15;;;;;;;3.00;85.40;95897.34;4859029;29;20519;-79
2022/02/22 00:56:20;;;;;;;5.60;1.45;;;;;;;3.06;84.80;95898.91;4858568;29;20532;-80
2022/02/22 00:58:48;;;;;;;3.45;1.08;;;;;;;3.04;83.78;95906.47;4859420;29;20053;-79
2022/02/22 01:01:16;;;;;;;4.72;1.10;;;;;;;3.04;83.86;95904.56;4858160;29;20062;-78
2022/02/22 01:03:43;;;;;;;5.93;1.40;;;;;;;3.07;83.67;95906.69;4859206;29;20595;-79
2022/02/22 01:06:09;;;;;;;2.25;1.08;;;;;;;3.09;83.48;95912.59;4858193;29;20061;-81
2022/02/22 01:08:36;;;;;;;3.15;1.17;;;;;;;3.07;83.42;95909.38;4859566;29;20065;-78
2022/02/22 01:11:03;;;;;;;5.20;1.00;;;;;;;3.09;83.01;95919.88;4857358;29;20390;-81
2022/02/22 01:13:29;;;;;;;3.10;0.88;;;;;;;3.12;83.18;95916.59;4857562;29;20422;-80
2022/02/22 01:15:57;;;;;;;4.25;1.20;;;;;;;3.14;83.48;95914.47;4858348;29;20057;-81
2022/02/22 01:18:24;;;;;;;4.20;1.08;;;;;;;3.13;83.55;95919.03;4857704;29;20425;-81
2022/02/22 01:20:50;;;;;;;4.25;1.10;;;;;;;3.10;83.16;95913.41;4857625;29;20056;-80
2022/02/22 01:23:17;;;;;;;3.70;1.13;;;;;;;3.16;82.93;95917.66;4856703;29;20135;-81
2022/02/22 01:25:44;;;;;;;2.22;0.60;;;;;;;3.19;82.73;95911.72;4858278;29;20068;-80
2022/02/22 01:28:10;;;;;;;3.90;1.10;;;;;;;3.24;82.91;95910.88;4857331;29;20409;-81
2022/02/22 01:30:37;;;;;;;4.07;1.02;;;;;;;3.26;82.57;95914.09;4858054;29;20053;-78
2022/02/22 01:33:05;;;;;;;4.57;1.35;;;;;;;3.21;82.42;95917.63;4856862;29;20058;-81
2022/02/22 01:35:32;;;;;;;4.18;1.35;;;;;;;3.28;82.66;95912.72;4857974;29;20053;-80
2022/02/22 01:37:58;;;;;;;3.47;0.90;;;;;;;3.33;83.16;95923.44;4857073;29;20056;-79
2022/02/22 01:40:26;;;;;;;4.50;1.02;;;;;;;3.38;83.63;95920.69;4857300;29;20603;-79
2022/02/22 01:42:53;;;;;;;3.20;1.10;;;;;;;3.39;82.72;95935.78;4855382;29;20068;-79
2022/02/22 01:45:22;;;;;;;4.43;1.25;;;;;;;3.35;82.92;95934.72;4857120;29;20579;-78
2022/02/22 01:47:48;;;;;;;4.85;1.10;;;;;;;3.27;83.75;95935.31;4858200;29;20080;-81
2022/02/22 01:50:17;;;;;;;3.35;1.08;;;;;;;3.23;84.94;95942.34;4856715;29;20387;-81
2022/02/22 01:52:43;;;;;;;8.63;1.30;;;;;;;3.24;85.22;95952.06;4857557;29;20049;-81
2022/02/22 01:55:10;;;;;;;1.95;0.98;;;;;;;3.13;85.48;95939.72;4856454;29;20053;-81
2022/02/22 01:57:37;;;;;;;4.30;1.52;;;;;;;3.15;85.12;95953.72;4857630;29;20064;-81
2022/02/22 02:00:08;;;;;;;4.13;1.25;;;;;;;3.12;85.12;95959.66;4856290;29;20053;-80
2022/02/22 02:02:35;;;;;;;3.60;1.10;;;;;;;3.12;84.85;95959.66;4856843;29;20057;-79
2022/02/22 02:05:02;;;;;;;2.33;1.08;;;;;;;3.08;85.37;95963.97;4856332;29;20061;-78
2022/02/22 02:07:30;;;;;;;4.07;1.20;;;;;;;3.11;85.12;95952.66;4857161;29;20056;-79
2022/02/22 02:09:56;;;;;;;3.90;0.88;;;;;;;3.12;84.63;95956.97;4856863;29;20064;-79
2022/02/22 02:12:23;;;;;;;7.63;1.63;;;;;;;3.14;84.47;95960.19;4854581;29;20092;-79
2022/02/22 02:14:49;;;;;;;4.00;0.90;;;;;;;3.19;84.28;95960.16;4857011;29;20061;-79
2022/02/22 02:17:16;;;;;;;5.93;1.27;;;;;;;3.15;84.49;95959.09;4855735;29;20498;-80
2022/02/22 02:19:43;;;;;;;6.93;1.48;;;;;;;3.16;84.32;95968.78;4856893;29;20054;-79
2022/02/22 02:22:11;;;;;;;3.15;1.20;;;;;;;3.16;84.69;95966.09;4855484;29;20421;-79
2022/02/22 02:24:38;;;;;;;4.03;1.35;;;;;;;3.14;84.23;95979.03;4857365;29;20061;-79
2022/02/22 02:27:04;;;;;;;7.22;2.42;;;;;;;3.18;84.53;95974.66;4856397;29;20300;-79
2022/02/22 02:29:31;;;;;;;6.03;1.30;;;;;;;3.20;84.60;95980.59;4856939;29;20050;-79
2022/02/22 02:31:58;;;;;;;6.75;1.27;;;;;;;3.23;84.00;95977.31;4856429;29;20050;-79
2022/02/22 02:34:26;;;;;;;5.15;1.23;;;;;;;3.27;83.74;95978.38;4854884;29;20540;-79
2022/02/22 02:36:53;;;;;;;6.32;1.23;;;;;;;3.27;83.17;95985.66;4856786;29;20054;-79
2022/02/22 02:39:21;;;;;;;4.18;1.75;;;;;;;3.29;82.72;95984.31;4855881;29;20061;-79
2022/02/22 02:41:48;;;;;;;6.10;2.45;;;;;;;3.31;83.31;95984.81;4856799;29;20100;-80
2022/02/22 02:44:17;;;;;;;4.05;1.10;;;;;;;3.30;82.71;95993.97;4838191;29;20103;-79
2022/02/22 02:46:43;;;;;;;7.20;2.00;;;;;;;3.31;82.79;95984.81;4838087;29;20056;-79
2022/02/22 02:49:12;;;;;;;7.70;1.30;;;;;;;3.34;82.56;95986.97;4836882;29;20061;-79
2022/02/22 02:51:39;;;;;;;4.65;1.17;;;;;;;3.33;82.44;95988.03;4838372;29;20061;-80
2022/02/22 02:54:07;;;;;;;6.32;1.92;;;;;;;3.35;84.36;95993.94;4837969;29;20089;-79
2022/02/22 02:56:35;;;;;;;10.63;1.70;;;;;;;3.36;87.72;95992.06;4838587;29;20064;-80
2022/02/22 02:59:04;;;;;;;12.60;1.85;;;;;;;3.29;89.21;95989.69;4838364;29;20054;-80
2022/02/22 03:01:32;;;;;;;4.53;1.27;;;;;;;3.17;88.87;95997.28;4838004;29;20057;-80
2022/02/22 03:03:59;;;;;;;6.30;1.20;;;;;;;3.11;88.11;95998.41;4839222;29;20085;-81
2022/02/22 03:06:26;;;;;;;8.55;2.00;;;;;;;3.05;88.31;95999.53;4837148;29;20045;-79
2022/02/22 03:08:53;;;;;;;7.68;1.77;;;;;;;3.09;89.41;95997.91;4838676;29;20140;-79
2022/02/22 03:11:19;;;;;;;5.95;1.52;;;;;;;3.07;90.68;95997.34;4836604;29;20050;-80
2022/02/22 03:13:47;;;;;;;6.63;1.48;;;;;;;3.03;87.91;96005.19;4838691;29;20058;-80
2022/02/22 03:16:14;;;;;;;5.57;1.70;;;;;;;3.05;87.44;96002.22;4837628;29;20430;-79
2022/02/22 03:18:42;;;;;;;5.18;1.73;;;;;;;2.97;88.22;96008.16;4838051;29;20064;-79
2022/02/22 03:21:09;;;;;;;6.13;1.52;;;;;;;2.93;87.69;96015.22;4837515;29;20054;-79
2022/02/22 03:23:35;;;;;;;4.93;1.58;;;;;;;2.99;87.71;96008.72;4837681;29;20053;-80
2022/02/22 03:26:02;;;;;;;5.22;2.03;;;;;;;3.01;88.02;96011.91;4837010;29;20057;-79
2022/02/22 03:28:28;;;;;;;8.30;1.60;;;;;;;3.03;87.17;96039.38;4837106;29;20058;-80
2022/02/22 03:30:56;;;;;;;4.65;1.58;;;;;;;3.10;88.12;96047.91;4837595;29;20053;-79
2022/02/22 03:33:23;;;;;;;6.50;1.60;;;;;;;3.12;89.80;96048.44;4836702;29;20054;-80
2022/02/22 03:35:50;;;;;;;3.35;1.65;;;;;;;3.02;90.66;96068.13;4834488;29;20049;-80
2022/02/22 03:38:17;;;;;;;9.82;2.15;;;;;;;2.97;91.91;96080.78;4836793;29;20126;-80
2022/02/22 03:40:44;;;;;;;7.70;1.98;;;;;;;2.80;93.99;96087.31;4836882;29;20514;-79
2022/02/22 03:43:11;;;;;;;5.28;2.00;;;;;;;2.60;94.30;96103.50;4837931;29;20058;-80
2022/02/22 03:45:38;;;;;;;7.63;1.30;;;;;;;2.43;95.09;96100.34;4837573;29;20057;-80
2022/02/22 03:48:06;;;;;;;3.40;1.27;;;;;;;2.20;95.28;96105.22;4837862;29;20060;-80
2022/02/22 03:50:33;;;;;;;7.38;1.75;;;;;;;2.05;95.99;96115.97;4837143;29;20054;-80
2022/02/22 03:53:00;;;;;;;8.00;1.50;;;;;;;1.90;95.87;96107.91;4838636;29;20429;-79
2022/02/22 03:55:27;;;;;;;9.60;1.50;;;;;;;1.86;96.22;96114.91;4836889;29;20485;-79
2022/02/22 03:57:54;;;;;;;7.13;1.60;;;;;;;1.79;97.29;96109.78;4838714;29;20069;-80
2022/02/22 04:00:23;;;;;;;6.63;1.98;;;;;;;1.72;97.74;96128.03;4837619;29;20053;-79
2022/02/22 04:02:50;;;;;;;9.23;1.65;;;;;;;1.70;97.79;96122.94;4838336;29;20073;-79
2022/02/22 04:05:20;;;;;;;9.55;1.75;;;;;;;1.66;97.50;96127.22;4837856;29;20061;-80
2022/02/22 04:07:47;;;;;;;9.85;1.85;;;;;;;1.69;97.58;96132.06;4838178;29;20065;-79
2022/02/22 04:10:14;;;;;;;9.18;1.70;;;;;;;1.70;97.84;96138.25;4837743;29;20058;-80
2022/02/22 04:12:41;;;;;;;7.88;1.42;;;;;;;1.67;98.20;96139.59;4854416;29;20053;-79
2022/02/22 04:15:11;;;;;;;9.55;1.65;;;;;;;1.67;98.47;96144.13;4856167;29;20064;-80
2022/02/22 04:17:37;;;;;;;7.85;1.48;;;;;;;1.61;98.42;96140.63;4855678;29;20068;-79
2022/02/22 04:20:07;;;;;;;14.18;1.95;;;;;;;1.58;98.07;96149.22;4856150;29;20049;-80
2022/02/22 04:22:35;;;;;;;14.90;1.70;;;;;;;1.57;97.63;96153.00;4855172;29;20050;-79
2022/02/22 04:25:02;;;;;;;6.07;1.55;;;;;;;1.50;97.44;96157.78;4855696;29;20057;-80
2022/02/22 04:27:29;;;;;;;9.98;1.80;;;;;;;1.42;97.63;96174.41;4856208;29;20693;-78
2022/02/22 04:29:55;;;;;;;15.48;1.88;;;;;;;1.46;97.79;96184.38;4855904;29;20053;-79
2022/02/22 04:32:22;;;;;;;12.98;2.28;;;;;;;1.47;97.65;96188.66;4855787;29;20059;-81
2022/02/22 04:34:49;;;;;;;8.90;1.67;;;;;;;1.47;96.86;96188.66;4855852;29;20578;-79
2022/02/22 04:37:16;;;;;;;7.03;1.85;;;;;;;1.49;96.28;96196.44;4855910;29;20679;-79
2022/02/22 04:39:45;;;;;;;14.48;2.50;;;;;;;1.52;96.17;96199.41;4855501;29;20045;-81
2022/02/22 04:42:11;;;;;;;9.10;1.92;;;;;;;1.58;95.92;96196.72;4853633;29;20061;-79
2022/02/22 04:44:39;;;;;;;6.45;1.67;;;;;;;1.63;95.19;96197.56;4855198;29;20064;-78
2022/02/22 04:47:06;;;;;;;10.05;2.15;;;;;;;1.70;95.29;96203.47;4854915;29;20069;-79
2022/02/22 04:49:33;;;;;;;12.57;2.35;;;;;;;1.79;94.68;96212.63;4855239;29;20049;-79
2022/02/22 04:51:59;;;;;;;8.30;1.70;;;;;;;1.86;94.46;96228.47;4855734;29;20445;-79
2022/02/22 04:54:26;;;;;;;12.80;2.47;;;;;;;1.94;93.34;96224.47;4854733;29;20046;-79
2022/02/22 04:56:56;;;;;;;9.82;1.83;;;;;;;1.96;92.71;96238.44;4856084;29;20057;-80
2022/02/22 04:59:24;;;;;;;7.00;1.88;;;;;;;1.97;92.32;96231.97;4858516;29;20052;-79
2022/02/22 05:01:50;;;;;;;13.60;1.98;;;;;;;1.97;93.28;96245.41;4858203;29;20682;-79
2022/02/22 05:04:17;;;;;;;6.95;1.48;;;;;;;1.90;93.13;96247.53;4858767;29;20058;-79
2022/02/22 05:06:44;;;;;;;8.15;1.88;;;;;;;1.92;92.36;96242.72;4857973;29;20394;-79
2022/02/22 05:09:10;;;;;;;8.77;1.77;;;;;;;1.91;93.27;96247.28;4859035;29;20054;-80
2022/02/22 05:11:37;;;;;;;12.68;2.70;;;;;;;1.87;93.64;96253.44;4855549;29;20536;-79
2022/02/22 05:14:05;;;;;;;12.27;2.00;;;;;;;1.87;93.45;96261.50;4858350;29;20064;-79
2022/02/22 05:16:35;;;;;;;11.43;1.85;;;;;;;1.93;91.77;96269.31;4858727;29;20438;-79
2022/02/22 05:19:01;;;;;;;8.55;1.65;;;;;;;1.92;92.31;96269.56;4858076;29;20046;-79
2022/02/22 05:21:28;;;;;;;7.25;1.95;;;;;;;1.89;91.20;96264.72;4859323;29;20053;-79
2022/02/22 05:23:55;;;;;;;12.98;2.13;;;;;;;1.95;91.41;96274.41;4858600;29;20049;-79
2022/02/22 05:26:22;;;;;;;11.70;2.20;;;;;;;1.93;91.40;96292.66;4858629;29;20060;-79
2022/02/22 05:28:48;;;;;;;7.75;1.92;;;;;;;1.95;91.36;96285.97;4857602;29;20053;-79
2022/02/22 05:31:19;;;;;;;12.27;2.17;;;;;;;1.98;91.44;96281.91;4858173;29;20049;-79
2022/02/22 05:33:46;;;;;;;9.27;1.85;;;;;;;1.93;91.50;96281.91;4858216;29;20052;-79
2022/02/22 05:36:13;;;;;;;9.50;2.13;;;;;;;1.98;91.18;96281.91;4857455;29;20053;-80
2022/02/22 05:38:40;;;;;;;8.10;2.30;;;;;;;1.97;91.86;96285.69;4857683;29;20050;-79
2022/02/22 05:41:07;;;;;;;12.40;2.13;;;;;;;1.96;92.13;96281.38;4854231;29;20618;-80
2022/02/22 05:43:34;;;;;;;7.55;1.80;;;;;;;1.94;92.33;96283.53;4858165;29;20052;-79
2022/02/22 05:46:00;;;;;;;8.93;2.00;;;;;;;1.91;91.28;96289.44;4857210;29;20068;-78
2022/02/22 05:48:28;;;;;;;8.80;1.67;;;;;;;1.92;90.72;96291.03;4857529;29;20057;-79
2022/02/22 05:50:54;;;;;;;8.95;2.40;;;;;;;1.94;91.31;96299.66;4857626;29;20073;-79
2022/02/22 05:53:21;;;;;;;8.40;1.92;;;;;;;1.90;91.67;96293.19;4857380;29;20057;-79
2022/02/22 05:55:47;;;;;;;11.10;2.33;;;;;;;1.89;91.95;96305.00;4856838;29;20052;-81
2022/02/22 05:58:14;;;;;;;9.52;1.90;;;;;;;1.87;91.45;96304.44;4857263;29;20064;-79
2022/02/22 06:00:41;;;;;;;7.45;1.80;;;;;;;1.82;91.00;96300.66;4857017;29;20050;-79
2022/02/22 06:03:07;;;;;;;13.13;2.00;;;;;;;1.79;90.86;96317.31;4856591;29;20057;-78
2022/02/22 06:05:35;;;;;;;12.65;1.90;;;;;;;1.77;90.67;96314.06;4857121;29;20057;-78
2022/02/22 06:08:02;;;;;;;12.13;2.17;;;;;;;1.78;90.21;96314.91;4856653;29;20076;-80
2022/02/22 06:10:28;;;;;;;8.20;1.63;;;;;;;1.79;90.16;96319.19;4854706;29;20072;-79
2022/02/22 06:12:55;;;;;;;10.52;2.10;;;;;;;1.81;90.69;96317.84;4856488;29;20502;-81
2022/02/22 06:15:22;;;;;;;9.18;1.80;;;;;;;1.87;91.18;96323.25;4856894;29;20060;-78
2022/02/22 06:17:49;;;;;;;6.82;1.85;;;;;;;1.93;91.36;96330.25;4856543;29;20114;-79
2022/02/22 06:20:16;;;;;;;7.20;1.58;;;;;;;1.98;90.11;96322.22;4856686;29;20049;-80
2022/02/22 06:22:45;;;;;;;13.10;2.67;;;;;;;2.02;88.55;96336.72;4857629;29;20069;-79
2022/02/22 06:25:12;;;;;;;7.63;1.63;;;;;;;2.00;87.79;96336.19;4858286;29;20113;-79
2022/02/22 06:27:50;;;;;;;9.18;1.70;;;;;;;2.06;88.26;96330.56;4860042;29;20084;-79
2022/02/22 06:30:17;;;;;;;12.88;2.28;;;;;;;2.03;88.13;96336.44;4857064;29;20053;-80
2022/02/22 06:32:44;;;;;;;7.55;1.85;;;;;;;2.04;89.04;96342.66;4859710;29;20057;-80
2022/02/22 06:35:11;;;;;;;9.68;1.70;;;;;;;2.02;89.22;96339.41;4856102;29;20105;-78
2022/02/22 06:37:38;;;;;;;9.32;1.83;;;;;;;1.98;87.79;96344.50;4862469;29;20823;-80
2022/02/22 06:40:09;;;;;;;8.15;1.80;;;;;;;2.02;87.64;96352.84;4860019;29;20050;-80
2022/02/22 06:42:36;;;;;;;13.70;1.85;;;;;;;2.00;85.92;96352.31;4843346;29;20066;-80
2022/02/22 06:45:05;;;;;;;10.65;2.42;;;;;;;2.04;88.05;96353.41;4841068;29;20084;-79
2022/02/22 06:47:32;;;;;;;10.18;1.85;;;;;;;2.09;89.95;96370.34;4841193;29;20081;-82
2022/02/22 06:49:59;;;;;;;8.65;1.70;;;;;;;2.05;87.58;96373.81;4840748;29;20057;-80
2022/02/22 06:52:26;;;;;;;9.02;2.03;;;;;;;2.13;88.64;96384.03;4840066;29;20054;-80
2022/02/22 06:54:52;;;;;;;9.90;1.58;;;;;;;2.13;85.98;96384.03;4839664;29;20053;-79
2022/02/22 06:57:20;;;;;;;8.80;1.83;;;;;;;2.21;88.24;96391.59;4836261;29;20061;-79
2022/02/22 06:59:48;;;;;;;7.10;1.33;;;;;;;2.22;86.97;96398.59;4837784;29;20050;-78
2022/02/22 07:02:14;;;;;;;6.28;1.48;;;;;;;2.26;86.39;96412.31;4836439;29;20462;-80
2022/02/22 07:04:41;;;;;;;7.18;1.58;;;;;;;2.32;84.90;96420.13;4838721;29;20065;-79
2022/02/22 07:07:07;;;;;;;8.40;1.50;;;;;;;2.34;83.20;96426.03;4838386;29;20063;-79
2022/02/22 07:09:34;;;;;;;8.68;1.60;;;;;;;2.41;84.70;96433.84;4839277;29;20042;-81
2022/02/22 07:12:04;;;;;;;12.95;1.80;;;;;;;2.43;83.68;96441.66;4841542;29;20061;-79
2022/02/22 07:14:30;;;;;;;12.38;1.65;;;;;;;2.46;83.25;96435.75;4839659;29;20053;-80
2022/02/22 07:16:58;;;;;;;10.85;1.65;;;;;;;2.45;82.47;96445.66;4839638;29;20413;-80
2022/02/22 07:19:25;;;;;;;11.48;1.35;;;;;;;2.44;82.95;96448.63;4838056;29;20050;-80
2022/02/22 07:21:51;;;;;;;7.07;1.58;;;;;;;2.49;85.71;96451.34;4839370;29;20061;-80
2022/02/22 07:24:18;;;;;;;9.48;1.70;;;;;;;2.43;84.55;96463.97;4838084;29;20057;-80
2022/02/22 07:26:46;;;;;;;6.63;1.35;;;;;;;2.43;86.23;96457.78;4838833;29;20441;-80
2022/02/22 07:29:13;;;;;;;4.50;1.25;;;;;;;2.41;83.72;96478.75;4840288;29;20049;-81
2022/02/22 07:31:39;;;;;;;5.43;1.70;;;;;;;2.38;84.00;96482.75;4843293;29;20054;-81
2022/02/22 07:34:08;;;;;;;11.48;1.75;;;;;;;2.46;83.29;96484.13;4840258;29;20165;-81
2022/02/22 07:36:39;;;;;;;10.80;2.42;;;;;;;2.42;82.84;96478.47;4861633;29;20084;-81
2022/02/22 07:39:06;;;;;;;10.25;1.83;;;;;;;2.49;83.19;96488.97;4861316;29;20060;-80
2022/02/22 07:41:33;;;;;;;9.68;1.65;;;;;;;2.57;83.28;96491.16;4858114;29;20562;-80
2022/02/22 07:44:00;;;;;;;4.93;1.30;;;;;;;2.68;84.65;96498.19;4838830;29;20482;-81
2022/02/22 07:46:27;;;;;;;6.68;1.17;;;;;;;2.70;83.35;96498.72;4840768;29;20050;-81
2022/02/22 07:48:54;;;;;;;10.02;1.83;;;;;;;2.70;83.70;96498.72;4841183;29;20422;-81
2022/02/22 07:51:23;;;;;;;4.95;1.20;;;;;;;2.63;82.88;96506.22;4838664;29;24583;-81
2022/02/22 07:53:50;;;;;;;6.00;1.90;;;;;;;2.58;83.51;96508.91;4838228;29;20054;-79
2022/02/22 07:56:17;;;;;;;9.25;2.40;;;;;;;2.53;83.30;96516.94;4837672;29;20553;-79
2022/02/22 07:58:43;;;;;;;10.35;1.23;;;;;;;2.51;83.56;96519.09;4836452;29;20502;-78
2022/02/22 08:01:11;;;;;;;7.68;1.52;;;;;;;2.45;84.00;96526.31;4836380;29;20131;-79
2022/02/22 08:03:38;;;;;;;6.60;1.80;;;;;;;2.50;84.67;96517.47;4837121;29;20057;-79
2022/02/22 08:06:04;;;;;;;9.02;1.50;;;;;;;2.58;85.17;96519.66;4837322;29;20054;-80
2022/02/22 08:08:35;;;;;;;9.15;1.80;;;;;;;2.67;85.08;96523.47;4837877;29;20054;-80
2022/02/22 08:11:01;;;;;;;6.93;1.90;;;;;;;2.72;84.74;96541.50;4840258;29;20058;-82
2022/02/22 08:13:28;;;;;;;10.32;2.03;;;;;;;2.81;85.23;96535.31;4837269;29;20053;-79
2022/02/22 08:15:54;;;;;;;6.72;1.60;;;;;;;2.91;84.12;96549.88;4838509;29;20145;-82
2022/02/22 08:18:23;;;;;;;9.45;1.60;;;;;;;2.99;83.78;96557.47;4837725;29;20065;-80
2022/02/22 08:20:49;;;;;;;8.10;1.92;;;;;;;3.09;83.68;96568.25;4836883;29;20106;-79
2022/02/22 08:23:16;;;;;;;9.63;1.80;;;;;;;3.20;84.19;96572.59;4836657;29;20061;-79
2022/02/22 08:25:44;;;;;;;10.77;2.55;;;;;;;3.29;84.67;96568.31;4837075;29;20065;-79
2022/02/22 08:28:11;;;;;;;12.73;2.38;;;;;;;3.43;83.23;96576.66;4837434;29;20634;-80
2022/02/22 08:30:40;;;;;;;5.47;1.45;;;;;;;3.60;82.89;96587.19;4837775;29;20077;-80
2022/02/22 08:33:07;;;;;;;9.50;2.33;;;;;;;3.81;83.11;96585.31;4841795;29;20425;-80
2022/02/22 08:35:34;;;;;;;7.57;1.90;;;;;;;3.96;79.47;96597.97;4844243;29;20046;-79
2022/02/22 08:38:01;;;;;;;6.90;1.80;;;;;;;3.89;79.16;96598.25;4842755;29;20054;-80
2022/02/22 08:40:28;;;;;;;9.55;1.75;;;;;;;3.82;79.48;96603.91;4842692;29;20060;-79
2022/02/22 08:42:56;;;;;;;5.10;1.77;;;;;;;3.90;80.46;96619.53;4841323;29;20041;-79
2022/02/22 08:45:25;;;;;;;9.98;1.75;;;;;;;4.17;78.93;96611.16;4841120;29;20050;-80
2022/02/22 08:47:51;;;;;;;10.55;1.88;;;;;;;4.39;80.06;96619.00;4840043;29;20074;-80
2022/02/22 08:50:18;;;;;;;8.68;1.90;;;;;;;4.49;75.52;96606.53;4840158;29;20061;-79
2022/02/22 08:52:45;;;;;;;10.38;2.03;;;;;;;4.77;81.72;96611.34;4838772;29;20057;-80
2022/02/22 08:55:12;;;;;;;12.05;2.20;;;;;;;5.22;78.01;96614.97;4840892;29;20065;-80
2022/02/22 08:57:40;;;;;;;12.95;2.00;;;;;;;6.19;78.86;96614.34;4837528;29;20081;-80
2022/02/22 09:00:10;;;;;;;7.00;2.05;;;;;;;6.75;72.86;96606.53;4839229;29;20638;-79
2022/02/22 09:02:37;;;;;;;7.50;1.40;;;;;;;6.49;76.05;96627.63;4843586;29;20080;-80
2022/02/22 09:05:04;;;;;;;8.40;1.88;;;;;;;6.09;73.78;96627.97;4843371;29;20057;-81
2022/02/22 09:07:31;;;;;;;9.38;1.70;;;;;;;5.58;70.69;96634.47;4841690;29;20049;-81
2022/02/22 09:09:59;;;;;;;13.05;2.13;;;;;;;5.40;74.06;96641.34;4834275;29;20053;-81
2022/02/22 09:12:27;;;;;;;7.47;1.60;;;;;;;5.21;71.28;96635.75;4851538;29;20056;-80
2022/02/22 09:14:54;;;;;;;14.32;1.92;;;;;;;5.69;75.95;96646.03;4870735;29;20058;-79
2022/02/22 09:17:22;;;;;;;5.65;1.52;;;;;;;5.74;71.77;96648.69;4858158;29;20057;-79
2022/02/22 09:19:49;;;;;;;10.80;1.83;;;;;;;5.52;67.85;96654.50;4857486;29;20061;-78
2022/02/22 09:22:15;;;;;;;9.75;1.88;;;;;;;5.44;69.10;96644.28;4857561;29;20500;-79
2022/02/22 09:24:42;;;;;;;7.00;1.77;;;;;;;5.55;73.72;96650.44;4856927;29;20065;-78
2022/02/22 09:27:08;;;;;;;8.15;1.60;;;;;;;5.90;69.46;96644.00;4857138;29;20053;-79
2022/02/22 09:29:35;;;;;;;11.18;1.55;;;;;;;5.95;72.76;96660.22;4839717;29;20077;-79
2022/02/22 09:32:01;;;;;;;10.02;1.90;;;;;;;5.95;67.52;96658.34;4839540;29;20426;-78
2022/02/22 09:34:30;;;;;;;10.52;1.75;;;;;;;5.99;69.75;96659.38;4840327;29;20510;-80
2022/02/22 09:37:02;;;;;;;6.72;2.30;;;;;;;6.15;69.94;96665.47;4840287;29;20062;-79
2022/02/22 09:39:29;;;;;;;7.43;1.55;;;;;;;6.46;64.50;96662.53;4839967;29;20052;-79
2022/02/22 09:41:55;;;;;;;10.02;1.83;;;;;;;6.63;67.75;96675.63;4840689;29;20065;-79
2022/02/22 09:44:22;;;;;;;10.27;2.15;;;;;;;6.91;65.43;96655.09;4838180;29;20421;-79
2022/02/22 09:46:49;;;;;;;6.72;1.70;;;;;;;7.17;63.27;96661.03;4839321;29;20065;-79
2022/02/22 09:49:15;;;;;;;11.35;1.65;;;;;;;7.22;64.67;96666.41;4839095;29;20052;-79
2022/02/22 09:51:43;;;;;;;8.20;1.67;;;;;;;7.10;60.43;96668.69;4839410;29;20046;-79
2022/02/22 09:54:10;;;;;;;9.32;1.50;;;;;;;7.82;62.93;96667.50;4839141;29;20057;-80
2022/02/22 09:56:42;;;;;;;7.72;1.42;;;;;;;8.25;61.97;96672.88;4839805;29;20061;-79
2022/02/22 09:59:08;;;;;;;8.25;1.75;;;;;;;7.51;54.47;96683.34;4838167;29;20056;-80
2022/02/22 10:01:42;;;;;;;6.68;1.85;;;;;;;8.30;63.41;96670.06;4839938;29;20526;-79
2022/02/22 10:04:09;;;;;;;5.95;1.60;;;;;;;8.70;55.78;96683.28;4837758;29;20065;-80
2022/02/22 10:06:36;;;;;;;9.57;1.42;;;;;;;8.36;52.68;96679.78;4839004;29;20238;-79
2022/02/22 10:09:06;;;;;;;5.10;1.00;;;;;;;7.59;55.45;96698.19;4838005;29;20050;-80
2022/02/22 10:11:34;;;;;;;8.15;1.65;;;;;;;7.16;59.75;96695.44;4832112;29;20063;-79
2022/02/22 10:14:02;;;;;;;7.82;1.38;;;;;;;6.48;55.28;96696.34;4847470;29;20050;-79
2022/02/22 10:16:39;;;;;;;8.23;1.50;;;;;;;6.37;59.30;96705.63;4839080;29;20046;-79
2022/02/22 10:19:07;;;;;;;6.20;1.38;;;;;;;6.16;57.08;96704.97;4852487;29;20058;-79
2022/02/22 10:21:40;;;;;;;8.07;1.50;;;;;;;6.30;62.56;96709.75;4855612;29;20049;-79
2022/02/22 10:24:08;;;;;;;8.77;1.67;;;;;;;6.52;59.04;96710.09;4857770;29;20060;-79
2022/02/22 10:26:35;;;;;;;7.72;1.33;;;;;;;6.36;59.30;96720.22;4854844;29;20057;-79
2022/02/22 10:29:13;;;;;;;7.35;1.50;;;;;;;6.33;59.34;96720.81;4857778;29;20061;-79
2022/02/22 10:31:39;;;;;;;8.18;1.88;;;;;;;6.34;59.94;96732.44;4858857;29;20517;-79
2022/02/22 10:34:06;;;;;;;10.30;1.58;;;;;;;6.01;57.77;96722.09;4859917;29;20058;-79
2022/02/22 10:36:34;;;;;;;6.88;1.48;;;;;;;5.86;56.79;96735.66;4861886;29;20056;-80
2022/02/22 10:39:04;;;;;;;8.32;1.30;;;;;;;5.72;57.33;96748.16;4860748;29;20333;-80
2022/02/22 10:41:43;;;;;;;9.35;1.58;;;;;;;5.82;58.95;96745.41;4850004;29;20462;-78
2022/02/22 10:44:12;;;;;;;8.32;1.77;;;;;;;5.79;58.20;96770.28;4843152;29;20057;-79
2022/02/22 10:46:45;;;;;;;5.60;1.40;;;;;;;5.68;57.43;96761.41;4846491;29;20050;-79
2022/02/22 10:49:14;;;;;;;7.30;1.40;;;;;;;5.72;57.81;96753.56;4845247;29;20135;-79
2022/02/22 10:51:43;;;;;;;7.40;1.52;;;;;;;5.85;61.36;96750.28;4845903;29;20065;-79
2022/02/22 10:54:16;;;;;;;6.82;1.58;;;;;;;5.68;58.33;96755.19;4845853;29;20701;-79
2022/02/22 10:56:44;;;;;;;3.65;1.10;;;;;;;5.65;57.60;96755.75;4839552;29;20057;-81
2022/02/22 10:59:11;;;;;;;11.52;1.60;;;;;;;5.39;62.04;96753.16;4848997;29;20062;-79
2022/02/22 11:01:38;;;;;;;13.48;1.52;;;;;;;5.38;61.24;96748.03;4846181;29;20053;-79
2022/02/22 11:04:06;;;;;;;7.68;1.67;;;;;;;5.35;61.80;96740.47;4846914;29;20065;-80
2022/02/22 11:06:33;;;;;;;8.77;1.80;;;;;;;5.43;61.92;96746.13;4848073;29;20050;-79
2022/02/22 11:09:00;;;;;;;7.65;1.70;;;;;;;5.62;63.33;96750.91;4847849;29;20050;-78
2022/02/22 11:11:35;;;;;;;5.47;1.23;;;;;;;5.66;60.24;96749.28;4855217;29;20900;-80
2022/02/22 11:14:05;;;;;;;9.15;1.77;;;;;;;5.75;60.37;96767.34;4862991;29;20057;-79
2022/02/22 11:16:40;;;;;;;6.28;1.45;;;;;;;5.61;59.59;96754.69;4867506;29;20060;-79
2022/02/22 11:19:16;;;;;;;10.13;2.60;;;;;;;5.89;60.79;96767.53;4864209;29;20063;-79
2022/02/22 11:21:44;;;;;;;6.50;1.70;;;;;;;6.36;61.82;96746.47;4868985;29;20057;-79
2022/02/22 11:24:12;;;;;;;8.25;1.63;;;;;;;6.63;62.32;96752.25;4877982;29;20068;-79
2022/02/22 11:26:47;;;;;;;6.90;1.25;;;;;;;6.93;60.75;96739.53;4878180;29;20072;-79
2022/02/22 11:29:16;;;;;;;6.15;1.40;;;;;;;7.24;55.39;96740.84;4876878;29;20053;-80
2022/02/22 11:31:45;;;;;;;5.95;1.45;;;;;;;7.16;54.36;96748.81;4874694;29;20081;-79
2022/02/22 11:34:11;;;;;;;7.35;1.67;;;;;;;7.05;55.67;96742.69;4876630;29;20067;-78
2022/02/22 11:36:44;;;;;;;6.30;1.15;;;;;;;7.10;52.86;96744.50;4875920;29;20057;-79
2022/02/22 11:39:22;;;;;;;7.15;1.15;;;;;;;6.90;52.51;96756.34;4875962;29;20045;-79